sensor_id;sensor_type;location;lat;lon;timestamp;P1;durP1;ratioP1;P2;durP2;ratioP2
14599;SDS011;7386;45.586;12.854;2022-07-23T00:01:28;29.73;;;27.00;;
14599;SDS011;7386;45.586;12.854;2022-07-23T00:03:58;30.15;;;27.25;;
14599;SDS011;7386;45.586;12.854;2022-07-23T00:06:26;30.30;;;27.48;;
14599;SDS011;7386;45.586;12.854;2022-07-23T00:08:55;31.27;;;28.38;;
14599;SDS011;7386;45.586;12.854;2022-07-23T00:11:24;29.70;;;26.65;;
14599;SDS011;7386;45.586;12.854;2022-07-23T00:13:52;28.90;;;26.42;;
14599;SDS011;7386;45.586;12.854;2022-07-23T00:16:22;28.95;;;26.35;;
14599;SDS011;7386;45.586;12.854;2022-07-23T00:18:52;28.60;;;25.90;;
14599;SDS011;7386;45.586;12.854;2022-07-23T00:21:20;29.60;;;26.90;;
14599;SDS011;7386;45.586;12.854;2022-07-23T00:23:50;29.98;;;27.27;;
14599;SDS011;7386;45.586;12.854;2022-07-23T00:26:18;30.33;;;27.48;;
14599;SDS011;7386;45.586;12.854;2022-07-23T00:28:47;30.52;;;27.83;;
14599;SDS011;7386;45.586;12.854;2022-07-23T00:31:16;30.70;;;27.67;;
14599;SDS011;7386;45.586;12.854;2022-07-23T00:33:44;31.27;;;28.05;;
14599;SDS011;7386;45.586;12.854;2022-07-23T00:36:14;30.60;;;27.70;;
14599;SDS011;7386;45.586;12.854;2022-07-23T00:38:43;29.80;;;26.98;;
14599;SDS011;7386;45.586;12.854;2022-07-23T00:41:11;29.98;;;27.27;;
14599;SDS011;7386;45.586;12.854;2022-07-23T00:43:40;31.27;;;28.38;;
14599;SDS011;7386;45.586;12.854;2022-07-23T00:46:08;33.63;;;30.42;;
14599;SDS011;7386;45.586;12.854;2022-07-23T00:48:37;31.52;;;28.45;;
14599;SDS011;7386;45.586;12.854;2022-07-23T00:51:06;30.38;;;27.58;;
14599;SDS011;7386;45.586;12.854;2022-07-23T00:53:36;31.50;;;28.35;;
14599;SDS011;7386;45.586;12.854;2022-07-23T00:56:04;30.10;;;27.23;;
14599;SDS011;7386;45.586;12.854;2022-07-23T00:58:34;31.05;;;28.08;;
14599;SDS011;7386;45.586;12.854;2022-07-23T01:01:03;30.27;;;27.58;;
14599;SDS011;7386;45.586;12.854;2022-07-23T01:03:32;30.45;;;27.63;;
14599;SDS011;7386;45.586;12.854;2022-07-23T01:06:00;30.75;;;27.85;;
14599;SDS011;7386;45.586;12.854;2022-07-23T01:08:29;29.20;;;26.38;;
14599;SDS011;7386;45.586;12.854;2022-07-23T01:10:59;30.48;;;27.45;;
14599;SDS011;7386;45.586;12.854;2022-07-23T01:13:27;30.70;;;27.55;;
14599;SDS011;7386;45.586;12.854;2022-07-23T01:15:56;28.52;;;25.70;;
14599;SDS011;7386;45.586;12.854;2022-07-23T01:18:24;29.05;;;26.40;;
14599;SDS011;7386;45.586;12.854;2022-07-23T01:20:53;29.38;;;26.58;;
14599;SDS011;7386;45.586;12.854;2022-07-23T01:23:23;30.58;;;27.85;;
14599;SDS011;7386;45.586;12.854;2022-07-23T01:25:52;29.75;;;27.02;;
14599;SDS011;7386;45.586;12.854;2022-07-23T01:28:21;29.80;;;26.90;;
14599;SDS011;7386;45.586;12.854;2022-07-23T01:30:50;28.88;;;26.08;;
14599;SDS011;7386;45.586;12.854;2022-07-23T01:33:18;28.63;;;25.95;;
14599;SDS011;7386;45.586;12.854;2022-07-23T01:35:47;28.40;;;25.70;;
14599;SDS011;7386;45.586;12.854;2022-07-23T01:38:15;29.77;;;27.08;;
14599;SDS011;7386;45.586;12.854;2022-07-23T01:40:45;28.38;;;25.58;;
14599;SDS011;7386;45.586;12.854;2022-07-23T01:43:20;28.80;;;26.10;;
14599;SDS011;7386;45.586;12.854;2022-07-23T01:45:53;28.10;;;25.42;;
14599;SDS011;7386;45.586;12.854;2022-07-23T01:48:21;29.42;;;26.63;;
14599;SDS011;7386;45.586;12.854;2022-07-23T01:50:50;28.35;;;25.73;;
14599;SDS011;7386;45.586;12.854;2022-07-23T01:53:18;28.83;;;26.13;;
14599;SDS011;7386;45.586;12.854;2022-07-23T01:55:48;28.73;;;26.02;;
14599;SDS011;7386;45.586;12.854;2022-07-23T01:58:17;28.77;;;25.95;;
14599;SDS011;7386;45.586;12.854;2022-07-23T02:00:45;28.10;;;25.60;;
14599;SDS011;7386;45.586;12.854;2022-07-23T02:03:14;29.30;;;26.48;;
14599;SDS011;7386;45.586;12.854;2022-07-23T02:05:43;29.05;;;26.40;;
14599;SDS011;7386;45.586;12.854;2022-07-23T02:08:11;29.88;;;26.98;;
14599;SDS011;7386;45.586;12.854;2022-07-23T02:10:40;30.90;;;27.98;;
14599;SDS011;7386;45.586;12.854;2022-07-23T02:13:10;30.80;;;27.90;;
14599;SDS011;7386;45.586;12.854;2022-07-23T02:15:44;30.60;;;27.70;;
14599;SDS011;7386;45.586;12.854;2022-07-23T02:18:13;31.35;;;28.38;;
14599;SDS011;7386;45.586;12.854;2022-07-23T02:20:42;31.40;;;28.50;;
14599;SDS011;7386;45.586;12.854;2022-07-23T02:23:11;30.13;;;27.20;;
14599;SDS011;7386;45.586;12.854;2022-07-23T02:25:39;30.98;;;27.73;;
14599;SDS011;7386;45.586;12.854;2022-07-23T02:28:10;34.35;;;30.85;;
14599;SDS011;7386;45.586;12.854;2022-07-23T02:30:38;31.13;;;28.13;;
14599;SDS011;7386;45.586;12.854;2022-07-23T02:33:07;31.98;;;28.98;;
14599;SDS011;7386;45.586;12.854;2022-07-23T02:35:35;30.25;;;27.45;;
14599;SDS011;7386;45.586;12.854;2022-07-23T02:38:04;31.33;;;28.45;;
14599;SDS011;7386;45.586;12.854;2022-07-23T02:40:32;30.17;;;27.38;;
14599;SDS011;7386;45.586;12.854;2022-07-23T02:43:01;30.13;;;27.23;;
14599;SDS011;7386;45.586;12.854;2022-07-23T02:45:31;35.60;;;28.33;;
14599;SDS011;7386;45.586;12.854;2022-07-23T02:47:59;32.33;;;29.42;;
14599;SDS011;7386;45.586;12.854;2022-07-23T02:50:27;32.38;;;29.27;;
14599;SDS011;7386;45.586;12.854;2022-07-23T02:52:56;30.02;;;27.23;;
14599;SDS011;7386;45.586;12.854;2022-07-23T02:55:25;30.40;;;27.73;;
14599;SDS011;7386;45.586;12.854;2022-07-23T02:57:54;29.10;;;26.48;;
14599;SDS011;7386;45.586;12.854;2022-07-23T03:00:23;33.85;;;30.67;;
14599;SDS011;7386;45.586;12.854;2022-07-23T03:02:53;29.95;;;27.25;;
14599;SDS011;7386;45.586;12.854;2022-07-23T03:05:21;30.83;;;28.05;;
14599;SDS011;7386;45.586;12.854;2022-07-23T03:07:50;31.35;;;28.63;;
14599;SDS011;7386;45.586;12.854;2022-07-23T03:10:18;30.27;;;27.58;;
14599;SDS011;7386;45.586;12.854;2022-07-23T03:12:47;33.30;;;29.80;;
14599;SDS011;7386;45.586;12.854;2022-07-23T03:15:15;32.53;;;29.52;;
14599;SDS011;7386;45.586;12.854;2022-07-23T03:17:44;31.23;;;28.23;;
14599;SDS011;7386;45.586;12.854;2022-07-23T03:20:14;30.00;;;27.13;;
14599;SDS011;7386;45.586;12.854;2022-07-23T03:22:43;31.80;;;28.60;;
14599;SDS011;7386;45.586;12.854;2022-07-23T03:25:11;36.30;;;32.78;;
14599;SDS011;7386;45.586;12.854;2022-07-23T03:27:40;37.22;;;33.67;;
14599;SDS011;7386;45.586;12.854;2022-07-23T03:30:09;37.20;;;33.42;;
14599;SDS011;7386;45.586;12.854;2022-07-23T03:32:38;34.85;;;31.23;;
14599;SDS011;7386;45.586;12.854;2022-07-23T03:35:06;33.80;;;30.48;;
14599;SDS011;7386;45.586;12.854;2022-07-23T03:37:36;35.15;;;31.63;;
14599;SDS011;7386;45.586;12.854;2022-07-23T03:40:06;34.13;;;30.88;;
14599;SDS011;7386;45.586;12.854;2022-07-23T03:42:34;36.08;;;32.70;;
14599;SDS011;7386;45.586;12.854;2022-07-23T03:45:04;34.22;;;31.05;;
14599;SDS011;7386;45.586;12.854;2022-07-23T03:47:33;37.50;;;33.58;;
14599;SDS011;7386;45.586;12.854;2022-07-23T03:50:02;35.05;;;31.70;;
14599;SDS011;7386;45.586;12.854;2022-07-23T03:52:31;36.47;;;32.85;;
14599;SDS011;7386;45.586;12.854;2022-07-23T03:55:01;36.50;;;33.00;;
14599;SDS011;7386;45.586;12.854;2022-07-23T03:57:29;37.33;;;33.92;;
14599;SDS011;7386;45.586;12.854;2022-07-23T03:59:58;38.13;;;34.55;;
14599;SDS011;7386;45.586;12.854;2022-07-23T04:02:26;36.60;;;33.03;;
14599;SDS011;7386;45.586;12.854;2022-07-23T04:04:55;37.50;;;33.80;;
14599;SDS011;7386;45.586;12.854;2022-07-23T04:07:24;36.83;;;33.22;;
14599;SDS011;7386;45.586;12.854;2022-07-23T04:09:52;37.67;;;33.97;;
14599;SDS011;7386;45.586;12.854;2022-07-23T04:12:22;40.38;;;36.53;;
14599;SDS011;7386;45.586;12.854;2022-07-23T04:14:51;40.30;;;36.22;;
14599;SDS011;7386;45.586;12.854;2022-07-23T04:17:19;46.53;;;41.72;;
14599;SDS011;7386;45.586;12.854;2022-07-23T04:19:48;42.25;;;38.05;;
14599;SDS011;7386;45.586;12.854;2022-07-23T04:22:16;52.42;;;47.40;;
14599;SDS011;7386;45.586;12.854;2022-07-23T04:24:45;42.72;;;38.33;;
14599;SDS011;7386;45.586;12.854;2022-07-23T04:27:14;49.78;;;44.60;;
14599;SDS011;7386;45.586;12.854;2022-07-23T04:29:44;44.83;;;40.25;;
14599;SDS011;7386;45.586;12.854;2022-07-23T04:32:13;45.58;;;40.67;;
14599;SDS011;7386;45.586;12.854;2022-07-23T04:34:41;52.42;;;47.25;;
14599;SDS011;7386;45.586;12.854;2022-07-23T04:37:10;55.03;;;49.38;;
14599;SDS011;7386;45.586;12.854;2022-07-23T04:39:39;50.35;;;45.38;;
14599;SDS011;7386;45.586;12.854;2022-07-23T04:42:07;50.88;;;45.63;;
14599;SDS011;7386;45.586;12.854;2022-07-23T04:44:35;53.08;;;47.78;;
14599;SDS011;7386;45.586;12.854;2022-07-23T04:47:06;55.75;;;50.10;;
14599;SDS011;7386;45.586;12.854;2022-07-23T04:49:34;54.25;;;48.80;;
14599;SDS011;7386;45.586;12.854;2022-07-23T04:52:03;59.05;;;52.85;;
14599;SDS011;7386;45.586;12.854;2022-07-23T04:54:32;58.22;;;52.17;;
14599;SDS011;7386;45.586;12.854;2022-07-23T04:57:00;58.95;;;52.33;;
14599;SDS011;7386;45.586;12.854;2022-07-23T04:59:29;57.20;;;50.97;;
14599;SDS011;7386;45.586;12.854;2022-07-23T05:01:58;62.47;;;55.95;;
14599;SDS011;7386;45.586;12.854;2022-07-23T05:04:28;60.42;;;53.88;;
14599;SDS011;7386;45.586;12.854;2022-07-23T05:06:57;60.30;;;54.08;;
14599;SDS011;7386;45.586;12.854;2022-07-23T05:09:26;58.38;;;52.08;;
14599;SDS011;7386;45.586;12.854;2022-07-23T05:11:56;57.80;;;51.95;;
14599;SDS011;7386;45.586;12.854;2022-07-23T05:14:25;61.88;;;55.20;;
14599;SDS011;7386;45.586;12.854;2022-07-23T05:16:54;60.33;;;54.20;;
14599;SDS011;7386;45.586;12.854;2022-07-23T05:19:22;58.33;;;52.22;;
14599;SDS011;7386;45.586;12.854;2022-07-23T05:21:53;58.72;;;52.42;;
14599;SDS011;7386;45.586;12.854;2022-07-23T05:24:21;65.55;;;58.55;;
14599;SDS011;7386;45.586;12.854;2022-07-23T05:26:50;63.83;;;57.42;;
14599;SDS011;7386;45.586;12.854;2022-07-23T05:29:19;63.53;;;57.00;;
14599;SDS011;7386;45.586;12.854;2022-07-23T05:31:48;60.28;;;54.13;;
14599;SDS011;7386;45.586;12.854;2022-07-23T05:34:16;63.70;;;56.60;;
14599;SDS011;7386;45.586;12.854;2022-07-23T05:36:44;62.00;;;55.65;;
14599;SDS011;7386;45.586;12.854;2022-07-23T05:39:14;66.60;;;56.78;;
14599;SDS011;7386;45.586;12.854;2022-07-23T05:41:42;66.90;;;56.08;;
14599;SDS011;7386;45.586;12.854;2022-07-23T05:44:10;71.15;;;59.85;;
14599;SDS011;7386;45.586;12.854;2022-07-23T05:46:39;69.07;;;60.10;;
14599;SDS011;7386;45.586;12.854;2022-07-23T05:49:07;65.75;;;58.45;;
14599;SDS011;7386;45.586;12.854;2022-07-23T05:51:36;69.40;;;62.17;;
14599;SDS011;7386;45.586;12.854;2022-07-23T05:54:04;65.53;;;58.85;;
14599;SDS011;7386;45.586;12.854;2022-07-23T05:56:33;67.95;;;58.75;;
14599;SDS011;7386;45.586;12.854;2022-07-23T05:59:02;63.47;;;56.70;;
14599;SDS011;7386;45.586;12.854;2022-07-23T06:01:31;77.20;;;69.18;;
14599;SDS011;7386;45.586;12.854;2022-07-23T06:03:59;92.15;;;81.95;;
14599;SDS011;7386;45.586;12.854;2022-07-23T06:06:28;86.90;;;73.43;;
14599;SDS011;7386;45.586;12.854;2022-07-23T06:08:56;87.18;;;77.82;;
14599;SDS011;7386;45.586;12.854;2022-07-23T06:11:25;84.47;;;75.68;;
14599;SDS011;7386;45.586;12.854;2022-07-23T06:13:55;88.25;;;78.97;;
14599;SDS011;7386;45.586;12.854;2022-07-23T06:16:23;87.13;;;77.90;;
14599;SDS011;7386;45.586;12.854;2022-07-23T06:18:51;87.65;;;78.50;;
14599;SDS011;7386;45.586;12.854;2022-07-23T06:21:20;95.32;;;85.22;;
14599;SDS011;7386;45.586;12.854;2022-07-23T06:24:08;102.20;;;91.30;;
14599;SDS011;7386;45.586;12.854;2022-07-23T06:26:37;102.43;;;91.38;;
14599;SDS011;7386;45.586;12.854;2022-07-23T06:29:06;97.88;;;87.25;;
14599;SDS011;7386;45.586;12.854;2022-07-23T06:31:34;93.68;;;82.75;;
14599;SDS011;7386;45.586;12.854;2022-07-23T06:34:03;98.57;;;88.30;;
14599;SDS011;7386;45.586;12.854;2022-07-23T06:36:32;96.32;;;85.80;;
14599;SDS011;7386;45.586;12.854;2022-07-23T06:39:00;102.20;;;91.10;;
14599;SDS011;7386;45.586;12.854;2022-07-23T06:41:30;94.60;;;84.55;;
14599;SDS011;7386;45.586;12.854;2022-07-23T06:43:59;91.22;;;81.57;;
14599;SDS011;7386;45.586;12.854;2022-07-23T06:46:28;85.72;;;75.32;;
14599;SDS011;7386;45.586;12.854;2022-07-23T06:48:57;82.88;;;72.28;;
14599;SDS011;7386;45.586;12.854;2022-07-23T06:51:26;78.07;;;69.65;;
14599;SDS011;7386;45.586;12.854;2022-07-23T06:53:57;79.15;;;70.47;;
14599;SDS011;7386;45.586;12.854;2022-07-23T06:56:26;78.43;;;65.97;;
14599;SDS011;7386;45.586;12.854;2022-07-23T06:58:54;71.57;;;64.07;;
14599;SDS011;7386;45.586;12.854;2022-07-23T07:01:23;70.13;;;62.60;;
14599;SDS011;7386;45.586;12.854;2022-07-23T07:03:52;70.28;;;62.65;;
14599;SDS011;7386;45.586;12.854;2022-07-23T07:06:21;73.97;;;64.80;;
14599;SDS011;7386;45.586;12.854;2022-07-23T07:08:50;73.88;;;63.53;;
14599;SDS011;7386;45.586;12.854;2022-07-23T07:11:18;70.75;;;59.92;;
14599;SDS011;7386;45.586;12.854;2022-07-23T07:13:47;69.43;;;57.25;;
14599;SDS011;7386;45.586;12.854;2022-07-23T07:16:15;65.30;;;56.38;;
14599;SDS011;7386;45.586;12.854;2022-07-23T07:18:43;66.38;;;55.38;;
14599;SDS011;7386;45.586;12.854;2022-07-23T07:21:13;62.85;;;56.15;;
14599;SDS011;7386;45.586;12.854;2022-07-23T07:23:42;65.30;;;56.15;;
14599;SDS011;7386;45.586;12.854;2022-07-23T07:26:10;63.35;;;55.70;;
14599;SDS011;7386;45.586;12.854;2022-07-23T07:28:39;66.47;;;59.28;;
14599;SDS011;7386;45.586;12.854;2022-07-23T07:31:10;66.65;;;59.42;;
14599;SDS011;7386;45.586;12.854;2022-07-23T07:33:38;68.20;;;61.20;;
14599;SDS011;7386;45.586;12.854;2022-07-23T07:36:07;66.57;;;58.35;;
14599;SDS011;7386;45.586;12.854;2022-07-23T07:38:40;67.20;;;57.38;;
14599;SDS011;7386;45.586;12.854;2022-07-23T07:41:08;64.45;;;56.08;;
14599;SDS011;7386;45.586;12.854;2022-07-23T07:43:37;64.82;;;57.53;;
14599;SDS011;7386;45.586;12.854;2022-07-23T07:46:05;67.75;;;58.13;;
14599;SDS011;7386;45.586;12.854;2022-07-23T07:48:36;60.28;;;53.78;;
14599;SDS011;7386;45.586;12.854;2022-07-23T07:51:04;64.30;;;57.40;;
14599;SDS011;7386;45.586;12.854;2022-07-23T07:53:34;66.75;;;59.70;;
14599;SDS011;7386;45.586;12.854;2022-07-23T07:56:04;70.07;;;62.38;;
14599;SDS011;7386;45.586;12.854;2022-07-23T07:58:33;70.72;;;63.15;;
14599;SDS011;7386;45.586;12.854;2022-07-23T08:01:02;70.10;;;62.53;;
14599;SDS011;7386;45.586;12.854;2022-07-23T08:03:30;67.60;;;58.55;;
14599;SDS011;7386;45.586;12.854;2022-07-23T08:06:01;59.58;;;53.17;;
14599;SDS011;7386;45.586;12.854;2022-07-23T08:08:30;57.03;;;50.75;;
14599;SDS011;7386;45.586;12.854;2022-07-23T08:10:58;53.88;;;48.42;;
14599;SDS011;7386;45.586;12.854;2022-07-23T08:13:28;53.83;;;47.92;;
14599;SDS011;7386;45.586;12.854;2022-07-23T08:15:57;52.15;;;46.67;;
14599;SDS011;7386;45.586;12.854;2022-07-23T08:18:26;52.65;;;47.13;;
14599;SDS011;7386;45.586;12.854;2022-07-23T08:20:55;52.55;;;47.00;;
14599;SDS011;7386;45.586;12.854;2022-07-23T08:23:23;65.47;;;55.85;;
14599;SDS011;7386;45.586;12.854;2022-07-23T08:25:55;67.72;;;57.13;;
14599;SDS011;7386;45.586;12.854;2022-07-23T08:28:26;64.78;;;56.92;;
14599;SDS011;7386;45.586;12.854;2022-07-23T08:30:56;65.90;;;58.75;;
14599;SDS011;7386;45.586;12.854;2022-07-23T08:33:25;70.35;;;61.83;;
14599;SDS011;7386;45.586;12.854;2022-07-23T08:36:00;73.22;;;65.50;;
14599;SDS011;7386;45.586;12.854;2022-07-23T08:38:30;83.13;;;66.35;;
14599;SDS011;7386;45.586;12.854;2022-07-23T08:40:58;75.15;;;67.15;;
14599;SDS011;7386;45.586;12.854;2022-07-23T08:43:27;76.38;;;65.93;;
14599;SDS011;7386;45.586;12.854;2022-07-23T08:45:59;78.57;;;67.30;;
14599;SDS011;7386;45.586;12.854;2022-07-23T08:48:28;81.03;;;70.03;;
14599;SDS011;7386;45.586;12.854;2022-07-23T08:50:58;83.28;;;74.25;;
14599;SDS011;7386;45.586;12.854;2022-07-23T08:53:28;83.53;;;74.50;;
14599;SDS011;7386;45.586;12.854;2022-07-23T08:55:59;86.32;;;74.63;;
14599;SDS011;7386;45.586;12.854;2022-07-23T08:58:29;85.13;;;76.05;;
14599;SDS011;7386;45.586;12.854;2022-07-23T09:00:59;86.40;;;77.30;;
14599;SDS011;7386;45.586;12.854;2022-07-23T09:03:28;85.00;;;73.82;;
14599;SDS011;7386;45.586;12.854;2022-07-23T09:05:57;84.90;;;75.45;;
14599;SDS011;7386;45.586;12.854;2022-07-23T09:08:34;82.97;;;74.20;;
14599;SDS011;7386;45.586;12.854;2022-07-23T09:11:03;82.72;;;74.05;;
14599;SDS011;7386;45.586;12.854;2022-07-23T09:13:33;85.53;;;74.65;;
14599;SDS011;7386;45.586;12.854;2022-07-23T09:16:05;85.90;;;75.65;;
14599;SDS011;7386;45.586;12.854;2022-07-23T09:18:35;87.13;;;73.13;;
14599;SDS011;7386;45.586;12.854;2022-07-23T09:21:08;82.68;;;74.00;;
14599;SDS011;7386;45.586;12.854;2022-07-23T09:23:38;83.03;;;73.72;;
14599;SDS011;7386;45.586;12.854;2022-07-23T09:26:17;84.93;;;75.75;;
14599;SDS011;7386;45.586;12.854;2022-07-23T09:28:50;81.75;;;73.03;;
14599;SDS011;7386;45.586;12.854;2022-07-23T09:31:20;86.25;;;76.85;;
14599;SDS011;7386;45.586;12.854;2022-07-23T09:33:49;82.20;;;73.72;;
14599;SDS011;7386;45.586;12.854;2022-07-23T09:36:26;83.70;;;74.82;;
14599;SDS011;7386;45.586;12.854;2022-07-23T09:38:55;86.70;;;77.45;;
14599;SDS011;7386;45.586;12.854;2022-07-23T09:41:24;88.97;;;79.75;;
14599;SDS011;7386;45.586;12.854;2022-07-23T09:43:54;91.63;;;81.68;;
14599;SDS011;7386;45.586;12.854;2022-07-23T09:46:27;94.43;;;83.35;;
14599;SDS011;7386;45.586;12.854;2022-07-23T09:48:56;93.10;;;83.10;;
14599;SDS011;7386;45.586;12.854;2022-07-23T09:51:25;96.13;;;86.60;;
14599;SDS011;7386;45.586;12.854;2022-07-23T09:53:57;98.03;;;87.85;;
14599;SDS011;7386;45.586;12.854;2022-07-23T09:56:27;101.25;;;90.13;;
14599;SDS011;7386;45.586;12.854;2022-07-23T09:58:55;111.72;;;95.80;;
14599;SDS011;7386;45.586;12.854;2022-07-23T10:01:32;107.25;;;96.10;;
14599;SDS011;7386;45.586;12.854;2022-07-23T10:04:02;108.47;;;96.63;;
14599;SDS011;7386;45.586;12.854;2022-07-23T10:06:31;112.07;;;100.47;;
14599;SDS011;7386;45.586;12.854;2022-07-23T10:08:59;108.63;;;97.10;;
14599;SDS011;7386;45.586;12.854;2022-07-23T10:11:29;114.93;;;95.30;;
14599;SDS011;7386;45.586;12.854;2022-07-23T10:13:58;105.25;;;94.15;;
14599;SDS011;7386;45.586;12.854;2022-07-23T10:16:28;104.07;;;93.22;;
14599;SDS011;7386;45.586;12.854;2022-07-23T10:18:59;104.60;;;93.32;;
14599;SDS011;7386;45.586;12.854;2022-07-23T10:21:28;108.55;;;97.63;;
14599;SDS011;7386;45.586;12.854;2022-07-23T10:24:03;106.80;;;95.70;;
14599;SDS011;7386;45.586;12.854;2022-07-23T10:26:34;106.05;;;94.80;;
14599;SDS011;7386;45.586;12.854;2022-07-23T10:29:10;105.20;;;94.18;;
14599;SDS011;7386;45.586;12.854;2022-07-23T10:31:46;100.07;;;89.43;;
14599;SDS011;7386;45.586;12.854;2022-07-23T10:34:29;99.55;;;88.65;;
14599;SDS011;7386;45.586;12.854;2022-07-23T10:36:59;102.90;;;91.80;;
14599;SDS011;7386;45.586;12.854;2022-07-23T10:39:31;102.22;;;91.88;;
14599;SDS011;7386;45.586;12.854;2022-07-23T10:42:09;99.88;;;89.38;;
14599;SDS011;7386;45.586;12.854;2022-07-23T10:44:39;100.47;;;89.47;;
14599;SDS011;7386;45.586;12.854;2022-07-23T10:47:09;98.97;;;88.60;;
14599;SDS011;7386;45.586;12.854;2022-07-23T10:49:50;95.22;;;84.95;;
14599;SDS011;7386;45.586;12.854;2022-07-23T10:52:22;95.72;;;85.80;;
14599;SDS011;7386;45.586;12.854;2022-07-23T10:54:52;97.25;;;87.15;;
14599;SDS011;7386;45.586;12.854;2022-07-23T10:57:22;100.43;;;86.78;;
14599;SDS011;7386;45.586;12.854;2022-07-23T11:02:39;90.68;;;81.32;;
14599;SDS011;7386;45.586;12.854;2022-07-23T11:05:10;92.45;;;82.82;;
14599;SDS011;7386;45.586;12.854;2022-07-23T11:10:32;84.00;;;75.28;;
14599;SDS011;7386;45.586;12.854;2022-07-23T11:24:07;66.60;;;59.65;;
14599;SDS011;7386;45.586;12.854;2022-07-23T11:26:43;62.10;;;54.70;;
14599;SDS011;7386;45.586;12.854;2022-07-23T11:31:58;64.57;;;57.70;;
14599;SDS011;7386;45.586;12.854;2022-07-23T11:34:30;74.03;;;61.85;;
14599;SDS011;7386;45.586;12.854;2022-07-23T11:36:59;72.20;;;64.38;;
14599;SDS011;7386;45.586;12.854;2022-07-23T11:39:30;72.53;;;64.63;;
14599;SDS011;7386;45.586;12.854;2022-07-23T11:41:59;72.18;;;64.53;;
14599;SDS011;7386;45.586;12.854;2022-07-23T11:44:32;68.15;;;60.78;;
14599;SDS011;7386;45.586;12.854;2022-07-23T11:47:02;66.28;;;59.42;;
14599;SDS011;7386;45.586;12.854;2022-07-23T11:49:31;65.15;;;56.75;;
14599;SDS011;7386;45.586;12.854;2022-07-23T11:52:03;64.57;;;57.78;;
14599;SDS011;7386;45.586;12.854;2022-07-23T11:54:34;64.07;;;57.28;;
14599;SDS011;7386;45.586;12.854;2022-07-23T11:57:05;61.33;;;54.88;;
14599;SDS011;7386;45.586;12.854;2022-07-23T11:59:35;58.10;;;52.30;;
14599;SDS011;7386;45.586;12.854;2022-07-23T12:02:05;52.08;;;46.75;;
14599;SDS011;7386;45.586;12.854;2022-07-23T12:04:37;46.88;;;42.13;;
14599;SDS011;7386;45.586;12.854;2022-07-23T12:09:50;40.58;;;36.38;;
14599;SDS011;7386;45.586;12.854;2022-07-23T12:12:19;40.40;;;36.40;;
14599;SDS011;7386;45.586;12.854;2022-07-23T12:14:48;40.13;;;36.05;;
14599;SDS011;7386;45.586;12.854;2022-07-23T12:17:17;36.17;;;31.02;;
14599;SDS011;7386;45.586;12.854;2022-07-23T12:19:46;32.95;;;29.67;;
14599;SDS011;7386;45.586;12.854;2022-07-23T12:22:15;36.35;;;32.60;;
14599;SDS011;7386;45.586;12.854;2022-07-23T12:24:57;36.45;;;32.50;;
14599;SDS011;7386;45.586;12.854;2022-07-23T12:27:27;35.70;;;31.92;;
14599;SDS011;7386;45.586;12.854;2022-07-23T12:29:55;33.70;;;30.58;;
14599;SDS011;7386;45.586;12.854;2022-07-23T12:32:24;37.28;;;33.40;;
14599;SDS011;7386;45.586;12.854;2022-07-23T12:35:02;36.35;;;32.25;;
14599;SDS011;7386;45.586;12.854;2022-07-23T12:37:32;44.30;;;36.08;;
14599;SDS011;7386;45.586;12.854;2022-07-23T12:40:22;37.33;;;33.58;;
14599;SDS011;7386;45.586;12.854;2022-07-23T12:42:51;39.30;;;34.88;;
14599;SDS011;7386;45.586;12.854;2022-07-23T12:45:20;36.38;;;32.47;;
14599;SDS011;7386;45.586;12.854;2022-07-23T12:50:40;32.50;;;29.20;;
14599;SDS011;7386;45.586;12.854;2022-07-23T12:53:11;31.00;;;27.98;;
14599;SDS011;7386;45.586;12.854;2022-07-23T12:55:53;28.50;;;25.48;;
14599;SDS011;7386;45.586;12.854;2022-07-23T12:58:46;25.70;;;22.95;;
14599;SDS011;7386;45.586;12.854;2022-07-23T13:01:36;25.50;;;22.95;;
14599;SDS011;7386;45.586;12.854;2022-07-23T13:04:05;23.00;;;19.55;;
14599;SDS011;7386;45.586;12.854;2022-07-23T13:06:39;22.67;;;20.35;;
14599;SDS011;7386;45.586;12.854;2022-07-23T13:09:09;25.73;;;21.10;;
14599;SDS011;7386;45.586;12.854;2022-07-23T13:11:42;26.15;;;21.35;;
14599;SDS011;7386;45.586;12.854;2022-07-23T13:14:13;23.27;;;20.73;;
14599;SDS011;7386;45.586;12.854;2022-07-23T13:16:42;23.55;;;19.38;;
14599;SDS011;7386;45.586;12.854;2022-07-23T13:19:11;21.95;;;19.55;;
14599;SDS011;7386;45.586;12.854;2022-07-23T13:21:44;22.17;;;19.83;;
14599;SDS011;7386;45.586;12.854;2022-07-23T13:24:13;23.00;;;19.42;;
14599;SDS011;7386;45.586;12.854;2022-07-23T13:26:43;20.20;;;18.23;;
14599;SDS011;7386;45.586;12.854;2022-07-23T13:29:13;21.08;;;19.15;;
14599;SDS011;7386;45.586;12.854;2022-07-23T13:31:45;21.15;;;18.92;;
14599;SDS011;7386;45.586;12.854;2022-07-23T13:34:14;22.17;;;18.70;;
14599;SDS011;7386;45.586;12.854;2022-07-23T13:36:43;20.50;;;18.40;;
14599;SDS011;7386;45.586;12.854;2022-07-23T13:39:12;21.23;;;18.88;;
14599;SDS011;7386;45.586;12.854;2022-07-23T13:41:40;24.75;;;18.00;;
14599;SDS011;7386;45.586;12.854;2022-07-23T13:44:17;20.83;;;17.90;;
14599;SDS011;7386;45.586;12.854;2022-07-23T13:46:48;20.77;;;18.67;;
14599;SDS011;7386;45.586;12.854;2022-07-23T13:49:17;24.55;;;18.27;;
14599;SDS011;7386;45.586;12.854;2022-07-23T13:51:47;19.45;;;17.48;;
14599;SDS011;7386;45.586;12.854;2022-07-23T13:54:16;20.55;;;18.35;;
14599;SDS011;7386;45.586;12.854;2022-07-23T13:56:45;20.92;;;18.70;;
14599;SDS011;7386;45.586;12.854;2022-07-23T13:59:13;21.85;;;19.17;;
14599;SDS011;7386;45.586;12.854;2022-07-23T14:01:44;20.70;;;18.45;;
14599;SDS011;7386;45.586;12.854;2022-07-23T14:04:33;20.50;;;18.30;;
14599;SDS011;7386;45.586;12.854;2022-07-23T14:07:02;20.55;;;16.42;;
14599;SDS011;7386;45.586;12.854;2022-07-23T14:09:31;20.65;;;16.67;;
14599;SDS011;7386;45.586;12.854;2022-07-23T14:12:00;18.35;;;16.17;;
14599;SDS011;7386;45.586;12.854;2022-07-23T14:14:29;18.13;;;16.27;;
14599;SDS011;7386;45.586;12.854;2022-07-23T14:17:00;18.83;;;15.73;;
14599;SDS011;7386;45.586;12.854;2022-07-23T14:19:29;18.02;;;15.75;;
14599;SDS011;7386;45.586;12.854;2022-07-23T14:21:58;18.73;;;15.55;;
14599;SDS011;7386;45.586;12.854;2022-07-23T14:24:27;19.10;;;14.88;;
14599;SDS011;7386;45.586;12.854;2022-07-23T14:27:00;19.00;;;14.70;;
14599;SDS011;7386;45.586;12.854;2022-07-23T14:29:29;23.42;;;18.70;;
14599;SDS011;7386;45.586;12.854;2022-07-23T14:31:59;21.48;;;16.00;;
14599;SDS011;7386;45.586;12.854;2022-07-23T14:34:28;15.88;;;14.38;;
14599;SDS011;7386;45.586;12.854;2022-07-23T14:36:57;15.77;;;14.18;;
14599;SDS011;7386;45.586;12.854;2022-07-23T14:39:46;19.13;;;13.95;;
14599;SDS011;7386;45.586;12.854;2022-07-23T14:42:15;23.05;;;14.48;;
14599;SDS011;7386;45.586;12.854;2022-07-23T14:44:44;18.42;;;14.23;;
14599;SDS011;7386;45.586;12.854;2022-07-23T14:47:14;16.23;;;14.05;;
14599;SDS011;7386;45.586;12.854;2022-07-23T14:49:47;16.80;;;14.73;;
14599;SDS011;7386;45.586;12.854;2022-07-23T14:52:15;21.83;;;13.77;;
14599;SDS011;7386;45.586;12.854;2022-07-23T14:54:45;17.27;;;14.60;;
14599;SDS011;7386;45.586;12.854;2022-07-23T14:57:15;14.70;;;13.13;;
14599;SDS011;7386;45.586;12.854;2022-07-23T14:59:52;28.27;;;14.65;;
14599;SDS011;7386;45.586;12.854;2022-07-23T15:02:22;17.20;;;13.82;;